sensor_id;sensor_type;location;lat;lon;timestamp;temperature;humidity
63802;DHT22;49949;43.060;25.624;2023-04-03T00:01:00;5.40;99.90
63802;DHT22;49949;43.060;25.624;2023-04-03T00:03:27;5.30;99.90
63802;DHT22;49949;43.060;25.624;2023-04-03T00:06:30;5.30;99.90
63802;DHT22;49949;43.060;25.624;2023-04-03T00:09:19;5.10;99.90
63802;DHT22;49949;43.060;25.624;2023-04-03T00:11:47;5.10;99.90
63802;DHT22;49949;43.060;25.624;2023-04-03T00:14:19;5.00;99.90
63802;DHT22;49949;43.060;25.624;2023-04-03T00:16:50;5.00;99.90
63802;DHT22;49949;43.060;25.624;2023-04-03T00:19:16;5.00;99.90
63802;DHT22;49949;43.060;25.624;2023-04-03T00:21:42;5.00;99.90
63802;DHT22;49949;43.060;25.624;2023-04-03T00:24:08;4.90;99.90
63802;DHT22;49949;43.060;25.624;2023-04-03T00:26:37;4.90;99.90
63802;DHT22;49949;43.060;25.624;2023-04-03T00:29:03;4.80;99.90
63802;DHT22;49949;43.060;25.624;2023-04-03T00:31:28;4.80;99.90
63802;DHT22;49949;43.060;25.624;2023-04-03T00:33:54;4.80;99.90
63802;DHT22;49949;43.060;25.624;2023-04-03T00:36:20;4.80;99.90
63802;DHT22;49949;43.060;25.624;2023-04-03T00:38:46;4.90;99.90
63802;DHT22;49949;43.060;25.624;2023-04-03T00:41:11;4.80;99.90
63802;DHT22;49949;43.060;25.624;2023-04-03T00:43:40;4.70;99.90
63802;DHT22;49949;43.060;25.624;2023-04-03T00:46:06;4.70;99.90
63802;DHT22;49949;43.060;25.624;2023-04-03T00:48:47;4.70;99.90
63802;DHT22;49949;43.060;25.624;2023-04-03T00:51:14;4.70;99.90
63802;DHT22;49949;43.060;25.624;2023-04-03T00:53:46;4.70;99.90
63802;DHT22;49949;43.060;25.624;2023-04-03T00:56:13;4.70;99.90
63802;DHT22;49949;43.060;25.624;2023-04-03T00:58:44;4.70;99.90
63802;DHT22;49949;43.060;25.624;2023-04-03T01:01:18;4.60;99.90
63802;DHT22;49949;43.060;25.624;2023-04-03T01:03:46;4.60;99.90
63802;DHT22;49949;43.060;25.624;2023-04-03T01:06:13;4.60;99.90
63802;DHT22;49949;43.060;25.624;2023-04-03T01:08:39;4.60;99.90
63802;DHT22;49949;43.060;25.624;2023-04-03T01:11:05;4.60;99.90
63802;DHT22;49949;43.060;25.624;2023-04-03T01:13:32;4.60;99.90
63802;DHT22;49949;43.060;25.624;2023-04-03T01:16:24;4.60;99.90
63802;DHT22;49949;43.060;25.624;2023-04-03T01:18:57;4.50;99.90
63802;DHT22;49949;43.060;25.624;2023-04-03T01:21:27;4.50;99.90
63802;DHT22;49949;43.060;25.624;2023-04-03T01:26:41;4.40;99.90
63802;DHT22;49949;43.060;25.624;2023-04-03T01:29:17;4.40;99.90
63802;DHT22;49949;43.060;25.624;2023-04-03T01:31:48;4.40;99.90
63802;DHT22;49949;43.060;25.624;2023-04-03T01:34:22;4.20;99.90
63802;DHT22;49949;43.060;25.624;2023-04-03T01:36:58;4.20;99.90
63802;DHT22;49949;43.060;25.624;2023-04-03T01:39:34;4.20;99.90
63802;DHT22;49949;43.060;25.624;2023-04-03T01:42:00;4.20;99.90
63802;DHT22;49949;43.060;25.624;2023-04-03T01:44:26;4.20;99.90
63802;DHT22;49949;43.060;25.624;2023-04-03T01:47:01;4.20;99.90
63802;DHT22;49949;43.060;25.624;2023-04-03T01:49:27;4.20;99.90
63802;DHT22;49949;43.060;25.624;2023-04-03T01:51:54;4.10;99.90
63802;DHT22;49949;43.060;25.624;2023-04-03T01:54:29;4.10;99.90
63802;DHT22;49949;43.060;25.624;2023-04-03T01:57:02;4.10;99.90
63802;DHT22;49949;43.060;25.624;2023-04-03T01:59:29;4.00;99.90
63802;DHT22;49949;43.060;25.624;2023-04-03T02:01:55;4.00;99.90
63802;DHT22;49949;43.060;25.624;2023-04-03T02:04:21;4.00;99.90
63802;DHT22;49949;43.060;25.624;2023-04-03T02:06:48;4.00;99.90
63802;DHT22;49949;43.060;25.624;2023-04-03T02:09:23;4.00;99.90
63802;DHT22;49949;43.060;25.624;2023-04-03T02:11:50;3.90;99.90
63802;DHT22;49949;43.060;25.624;2023-04-03T02:14:26;3.90;99.90
63802;DHT22;49949;43.060;25.624;2023-04-03T02:17:04;3.80;99.90
63802;DHT22;49949;43.060;25.624;2023-04-03T02:22:05;3.70;99.90
63802;DHT22;49949;43.060;25.624;2023-04-03T02:24:31;3.60;99.90
63802;DHT22;49949;43.060;25.624;2023-04-03T02:26:57;3.60;99.90
63802;DHT22;49949;43.060;25.624;2023-04-03T02:29:23;3.70;99.90
63802;DHT22;49949;43.060;25.624;2023-04-03T02:31:51;3.70;99.90
63802;DHT22;49949;43.060;25.624;2023-04-03T02:34:26;3.70;99.90
63802;DHT22;49949;43.060;25.624;2023-04-03T02:37:01;3.70;99.90
63802;DHT22;49949;43.060;25.624;2023-04-03T02:39:27;3.70;99.90
63802;DHT22;49949;43.060;25.624;2023-04-03T02:41:52;3.70;99.90
63802;DHT22;49949;43.060;25.624;2023-04-03T02:44:18;3.70;99.90
63802;DHT22;49949;43.060;25.624;2023-04-03T02:46:46;3.70;99.90
63802;DHT22;49949;43.060;25.624;2023-04-03T02:49:12;3.60;99.90
63802;DHT22;49949;43.060;25.624;2023-04-03T02:51:49;3.60;99.90
63802;DHT22;49949;43.060;25.624;2023-04-03T02:54:20;3.60;99.90
63802;DHT22;49949;43.060;25.624;2023-04-03T02:56:58;3.60;99.90
63802;DHT22;49949;43.060;25.624;2023-04-03T02:59:59;3.60;99.90
63802;DHT22;49949;43.060;25.624;2023-04-03T03:02:28;3.50;99.90
63802;DHT22;49949;43.060;25.624;2023-04-03T03:05:04;3.50;99.90
63802;DHT22;49949;43.060;25.624;2023-04-03T03:07:30;3.50;99.90
63802;DHT22;49949;43.060;25.624;2023-04-03T03:09:58;3.50;99.90
63802;DHT22;49949;43.060;25.624;2023-04-03T03:12:35;3.50;99.90
63802;DHT22;49949;43.060;25.624;2023-04-03T03:15:03;3.40;99.90
63802;DHT22;49949;43.060;25.624;2023-04-03T03:17:34;3.50;99.90
63802;DHT22;49949;43.060;25.624;2023-04-03T03:20:05;3.40;99.90
63802;DHT22;49949;43.060;25.624;2023-04-03T03:22:32;3.40;99.90
63802;DHT22;49949;43.060;25.624;2023-04-03T03:24:57;3.40;99.90
63802;DHT22;49949;43.060;25.624;2023-04-03T03:27:23;3.30;99.90
63802;DHT22;49949;43.060;25.624;2023-04-03T03:30:18;3.30;99.90
63802;DHT22;49949;43.060;25.624;2023-04-03T03:32:48;3.30;99.90
63802;DHT22;49949;43.060;25.624;2023-04-03T03:35:16;3.30;99.90
63802;DHT22;49949;43.060;25.624;2023-04-03T03:37:42;3.30;99.90
63802;DHT22;49949;43.060;25.624;2023-04-03T03:40:09;3.30;99.90
63802;DHT22;49949;43.060;25.624;2023-04-03T03:42:39;3.30;99.90
63802;DHT22;49949;43.060;25.624;2023-04-03T03:45:10;3.30;99.90
63802;DHT22;49949;43.060;25.624;2023-04-03T03:47:35;3.30;99.90
63802;DHT22;49949;43.060;25.624;2023-04-03T03:50:06;3.40;99.90
63802;DHT22;49949;43.060;25.624;2023-04-03T03:52:34;3.30;99.90
63802;DHT22;49949;43.060;25.624;2023-04-03T03:55:01;3.30;99.90
63802;DHT22;49949;43.060;25.624;2023-04-03T03:57:34;3.30;99.90
63802;DHT22;49949;43.060;25.624;2023-04-03T04:00:00;3.30;99.90
63802;DHT22;49949;43.060;25.624;2023-04-03T04:02:25;3.30;99.90
63802;DHT22;49949;43.060;25.624;2023-04-03T04:04:51;3.30;99.90
63802;DHT22;49949;43.060;25.624;2023-04-03T04:07:17;3.20;99.90
63802;DHT22;49949;43.060;25.624;2023-04-03T04:09:42;3.30;99.90
63802;DHT22;49949;43.060;25.624;2023-04-03T04:12:08;3.20;99.90
63802;DHT22;49949;43.060;25.624;2023-04-03T04:14:36;3.30;99.90
63802;DHT22;49949;43.060;25.624;2023-04-03T04:17:02;3.30;99.90
63802;DHT22;49949;43.060;25.624;2023-04-03T04:19:28;3.30;99.90
63802;DHT22;49949;43.060;25.624;2023-04-03T04:21:56;3.30;99.90
63802;DHT22;49949;43.060;25.624;2023-04-03T04:24:25;3.30;99.90
63802;DHT22;49949;43.060;25.624;2023-04-03T04:27:04;3.40;99.90
63802;DHT22;49949;43.060;25.624;2023-04-03T04:29:29;3.40;99.90
63802;DHT22;49949;43.060;25.624;2023-04-03T04:32:00;3.30;99.90
63802;DHT22;49949;43.060;25.624;2023-04-03T04:34:27;3.40;99.90
63802;DHT22;49949;43.060;25.624;2023-04-03T04:36:52;3.40;99.90
63802;DHT22;49949;43.060;25.624;2023-04-03T04:39:18;3.50;99.90
63802;DHT22;49949;43.060;25.624;2023-04-03T04:41:47;3.70;99.90
63802;DHT22;49949;43.060;25.624;2023-04-03T04:44:50;3.70;99.90
63802;DHT22;49949;43.060;25.624;2023-04-03T04:47:16;3.80;99.90
63802;DHT22;49949;43.060;25.624;2023-04-03T04:49:42;3.90;99.90
63802;DHT22;49949;43.060;25.624;2023-04-03T04:52:07;4.00;99.90
63802;DHT22;49949;43.060;25.624;2023-04-03T04:54:33;4.10;99.90
63802;DHT22;49949;43.060;25.624;2023-04-03T04:57:25;4.20;99.90
63802;DHT22;49949;43.060;25.624;2023-04-03T04:59:53;4.30;99.90
63802;DHT22;49949;43.060;25.624;2023-04-03T05:02:20;4.50;99.90
63802;DHT22;49949;43.060;25.624;2023-04-03T05:04:51;4.60;99.90
63802;DHT22;49949;43.060;25.624;2023-04-03T05:07:17;4.70;99.90
63802;DHT22;49949;43.060;25.624;2023-04-03T05:09:44;4.80;99.90
63802;DHT22;49949;43.060;25.624;2023-04-03T05:12:10;4.90;99.90
63802;DHT22;49949;43.060;25.624;2023-04-03T05:14:36;5.00;99.90
63802;DHT22;49949;43.060;25.624;2023-04-03T05:17:03;5.10;99.90
63802;DHT22;49949;43.060;25.624;2023-04-03T05:19:28;5.10;99.90
63802;DHT22;49949;43.060;25.624;2023-04-03T05:22:03;5.20;99.90
63802;DHT22;49949;43.060;25.624;2023-04-03T05:24:30;5.20;99.90
63802;DHT22;49949;43.060;25.624;2023-04-03T05:26:58;5.30;99.90
63802;DHT22;49949;43.060;25.624;2023-04-03T05:29:27;5.40;99.90
63802;DHT22;49949;43.060;25.624;2023-04-03T05:31:53;5.40;99.90
63802;DHT22;49949;43.060;25.624;2023-04-03T05:34:20;5.60;99.90
63802;DHT22;49949;43.060;25.624;2023-04-03T05:37:03;5.70;99.90
63802;DHT22;49949;43.060;25.624;2023-04-03T05:39:47;5.80;99.90
63802;DHT22;49949;43.060;25.624;2023-04-03T05:42:13;6.00;99.90
63802;DHT22;49949;43.060;25.624;2023-04-03T05:44:42;6.10;99.90
63802;DHT22;49949;43.060;25.624;2023-04-03T05:47:12;6.30;99.90
63802;DHT22;49949;43.060;25.624;2023-04-03T05:49:38;6.40;99.90
63802;DHT22;49949;43.060;25.624;2023-04-03T05:52:21;6.60;99.90
63802;DHT22;49949;43.060;25.624;2023-04-03T05:54:56;6.80;99.90
63802;DHT22;49949;43.060;25.624;2023-04-03T05:57:26;7.00;99.90
63802;DHT22;49949;43.060;25.624;2023-04-03T05:59:53;7.20;99.90
63802;DHT22;49949;43.060;25.624;2023-04-03T06:05:23;7.50;99.90
63802;DHT22;49949;43.060;25.624;2023-04-03T06:07:52;7.70;99.90
63802;DHT22;49949;43.060;25.624;2023-04-03T06:10:19;7.90;99.90
63802;DHT22;49949;43.060;25.624;2023-04-03T06:12:50;8.10;99.90
63802;DHT22;49949;43.060;25.624;2023-04-03T06:15:16;8.30;99.90
63802;DHT22;49949;43.060;25.624;2023-04-03T06:17:44;8.30;99.90
63802;DHT22;49949;43.060;25.624;2023-04-03T06:20:10;8.40;99.90
63802;DHT22;49949;43.060;25.624;2023-04-03T06:22:40;8.60;99.90
63802;DHT22;49949;43.060;25.624;2023-04-03T06:25:18;8.70;99.90
63802;DHT22;49949;43.060;25.624;2023-04-03T06:27:44;8.90;99.90
63802;DHT22;49949;43.060;25.624;2023-04-03T06:30:13;9.00;99.90
63802;DHT22;49949;43.060;25.624;2023-04-03T06:32:39;9.10;99.90
63802;DHT22;49949;43.060;25.624;2023-04-03T06:35:05;9.20;99.90
63802;DHT22;49949;43.060;25.624;2023-04-03T06:37:31;9.30;99.90
63802;DHT22;49949;43.060;25.624;2023-04-03T06:40:01;9.50;99.90
63802;DHT22;49949;43.060;25.624;2023-04-03T06:42:33;9.80;99.90
63802;DHT22;49949;43.060;25.624;2023-04-03T06:45:01;10.10;99.90
63802;DHT22;49949;43.060;25.624;2023-04-03T06:47:27;10.30;99.90
63802;DHT22;49949;43.060;25.624;2023-04-03T06:49:57;10.50;99.90
63802;DHT22;49949;43.060;25.624;2023-04-03T06:52:23;10.70;99.90
63802;DHT22;49949;43.060;25.624;2023-04-03T06:54:55;10.90;99.90
63802;DHT22;49949;43.060;25.624;2023-04-03T06:57:27;11.00;99.90
63802;DHT22;49949;43.060;25.624;2023-04-03T07:00:04;11.20;99.90
63802;DHT22;49949;43.060;25.624;2023-04-03T07:02:32;11.40;99.90
63802;DHT22;49949;43.060;25.624;2023-04-03T07:05:09;11.60;99.90
63802;DHT22;49949;43.060;25.624;2023-04-03T07:07:42;11.70;99.90
63802;DHT22;49949;43.060;25.624;2023-04-03T07:10:38;11.90;99.90
63802;DHT22;49949;43.060;25.624;2023-04-03T07:13:09;12.00;99.90
63802;DHT22;49949;43.060;25.624;2023-04-03T07:15:37;12.10;99.90
63802;DHT22;49949;43.060;25.624;2023-04-03T07:18:09;12.30;99.90
63802;DHT22;49949;43.060;25.624;2023-04-03T07:20:35;12.60;99.90
63802;DHT22;49949;43.060;25.624;2023-04-03T07:23:02;12.70;99.90
63802;DHT22;49949;43.060;25.624;2023-04-03T07:25:29;12.80;99.90
63802;DHT22;49949;43.060;25.624;2023-04-03T07:27:54;13.00;99.90
63802;DHT22;49949;43.060;25.624;2023-04-03T07:30:20;13.10;99.90
63802;DHT22;49949;43.060;25.624;2023-04-03T07:32:46;13.30;99.90
63802;DHT22;49949;43.060;25.624;2023-04-03T07:35:12;13.40;99.90
63802;DHT22;49949;43.060;25.624;2023-04-03T07:37:38;13.60;99.90
63802;DHT22;49949;43.060;25.624;2023-04-03T07:40:05;13.70;99.90
63802;DHT22;49949;43.060;25.624;2023-04-03T07:42:32;13.90;99.90
63802;DHT22;49949;43.060;25.624;2023-04-03T07:44:57;14.10;99.90
63802;DHT22;49949;43.060;25.624;2023-04-03T07:47:23;14.30;99.90
63802;DHT22;49949;43.060;25.624;2023-04-03T07:49:48;14.40;99.90
63802;DHT22;49949;43.060;25.624;2023-04-03T07:52:17;14.60;99.90
63802;DHT22;49949;43.060;25.624;2023-04-03T07:54:44;15.00;99.90
63802;DHT22;49949;43.060;25.624;2023-04-03T07:57:10;15.20;99.90
63802;DHT22;49949;43.060;25.624;2023-04-03T07:59:38;15.40;99.90
63802;DHT22;49949;43.060;25.624;2023-04-03T08:02:04;15.50;99.90
63802;DHT22;49949;43.060;25.624;2023-04-03T08:04:30;15.60;99.90
63802;DHT22;49949;43.060;25.624;2023-04-03T08:06:56;15.60;99.90
63802;DHT22;49949;43.060;25.624;2023-04-03T08:09:22;15.90;99.90
63802;DHT22;49949;43.060;25.624;2023-04-03T08:11:47;16.00;99.90
63802;DHT22;49949;43.060;25.624;2023-04-03T08:14:16;16.00;99.90
63802;DHT22;49949;43.060;25.624;2023-04-03T08:16:45;16.20;99.90
63802;DHT22;49949;43.060;25.624;2023-04-03T08:19:10;16.40;98.80
63802;DHT22;49949;43.060;25.624;2023-04-03T08:21:39;16.50;98.80
63802;DHT22;49949;43.060;25.624;2023-04-03T08:24:05;16.60;99.50
63802;DHT22;49949;43.060;25.624;2023-04-03T08:26:31;16.70;98.40
63802;DHT22;49949;43.060;25.624;2023-04-03T08:28:56;16.80;97.00
63802;DHT22;49949;43.060;25.624;2023-04-03T08:31:22;16.80;96.70
63802;DHT22;49949;43.060;25.624;2023-04-03T08:33:51;16.60;93.30
63802;DHT22;49949;43.060;25.624;2023-04-03T08:36:21;16.20;94.10
63802;DHT22;49949;43.060;25.624;2023-04-03T08:38:52;16.10;95.30
63802;DHT22;49949;43.060;25.624;2023-04-03T08:46:37;16.10;95.50
63802;DHT22;49949;43.060;25.624;2023-04-03T08:49:07;15.90;94.20
63802;DHT22;49949;43.060;25.624;2023-04-03T08:51:36;16.00;96.00
63802;DHT22;49949;43.060;25.624;2023-04-03T08:54:06;16.30;94.90
63802;DHT22;49949;43.060;25.624;2023-04-03T08:56:38;16.30;93.00
63802;DHT22;49949;43.060;25.624;2023-04-03T08:59:05;16.40;94.30
63802;DHT22;49949;43.060;25.624;2023-04-03T09:01:38;16.40;93.60
63802;DHT22;49949;43.060;25.624;2023-04-03T09:04:15;16.40;91.90
63802;DHT22;49949;43.060;25.624;2023-04-03T09:07:02;16.60;93.40
63802;DHT22;49949;43.060;25.624;2023-04-03T09:09:35;16.70;92.20
63802;DHT22;49949;43.060;25.624;2023-04-03T09:12:23;16.90;92.80
63802;DHT22;49949;43.060;25.624;2023-04-03T09:15:01;17.10;89.10
63802;DHT22;49949;43.060;25.624;2023-04-03T09:17:36;17.20;91.30
63802;DHT22;49949;43.060;25.624;2023-04-03T09:22:55;17.50;90.20
63802;DHT22;49949;43.060;25.624;2023-04-03T09:25:36;17.60;89.90
63802;DHT22;49949;43.060;25.624;2023-04-03T09:28:03;17.50;88.50
63802;DHT22;49949;43.060;25.624;2023-04-03T09:30:37;17.40;90.70
63802;DHT22;49949;43.060;25.624;2023-04-03T09:33:04;17.20;87.00
63802;DHT22;49949;43.060;25.624;2023-04-03T09:35:32;17.00;89.40
63802;DHT22;49949;43.060;25.624;2023-04-03T09:38:00;17.10;90.40
63802;DHT22;49949;43.060;25.624;2023-04-03T09:42:52;17.30;89.30
63802;DHT22;49949;43.060;25.624;2023-04-03T09:45:36;17.50;86.10
63802;DHT22;49949;43.060;25.624;2023-04-03T09:50:32;17.80;87.10
63802;DHT22;49949;43.060;25.624;2023-04-03T09:53:41;17.90;86.30
63802;DHT22;49949;43.060;25.624;2023-04-03T09:58:44;18.00;86.30
63802;DHT22;49949;43.060;25.624;2023-04-03T10:04:12;17.80;88.10
63802;DHT22;49949;43.060;25.624;2023-04-03T10:09:16;17.20;88.90
63802;DHT22;49949;43.060;25.624;2023-04-03T10:14:32;17.00;88.50
63802;DHT22;49949;43.060;25.624;2023-04-03T10:19:55;16.80;90.10
63802;DHT22;49949;43.060;25.624;2023-04-03T10:27:37;16.90;91.10
63802;DHT22;49949;43.060;25.624;2023-04-03T10:35:45;17.50;88.00
63802;DHT22;49949;43.060;25.624;2023-04-03T10:46:36;17.20;86.30
63802;DHT22;49949;43.060;25.624;2023-04-03T10:49:20;17.20;86.60
63802;DHT22;49949;43.060;25.624;2023-04-03T10:51:51;17.20;86.40
63802;DHT22;49949;43.060;25.624;2023-04-03T10:57:00;17.00;88.80
63802;DHT22;49949;43.060;25.624;2023-04-03T10:59:33;17.00;90.10
63802;DHT22;49949;43.060;25.624;2023-04-03T11:02:10;17.00;87.90
63802;DHT22;49949;43.060;25.624;2023-04-03T11:04:40;16.80;88.80
63802;DHT22;49949;43.060;25.624;2023-04-03T11:07:11;16.90;86.30
63802;DHT22;49949;43.060;25.624;2023-04-03T11:09:41;16.90;87.50
63802;DHT22;49949;43.060;25.624;2023-04-03T11:12:13;16.70;87.20
63802;DHT22;49949;43.060;25.624;2023-04-03T11:14:45;16.80;87.40
63802;DHT22;49949;43.060;25.624;2023-04-03T11:19:45;17.00;88.10
63802;DHT22;49949;43.060;25.624;2023-04-03T11:24:46;17.30;87.70
63802;DHT22;49949;43.060;25.624;2023-04-03T11:27:22;17.30;85.80
63802;DHT22;49949;43.060;25.624;2023-04-03T11:29:51;17.30;84.40
63802;DHT22;49949;43.060;25.624;2023-04-03T11:35:07;17.50;83.70
63802;DHT22;49949;43.060;25.624;2023-04-03T11:37:44;17.50;83.00
63802;DHT22;49949;43.060;25.624;2023-04-03T11:43:28;17.70;84.10
63802;DHT22;49949;43.060;25.624;2023-04-03T11:46:01;17.50;85.30
63802;DHT22;49949;43.060;25.624;2023-04-03T11:51:01;17.50;86.80
63802;DHT22;49949;43.060;25.624;2023-04-03T11:53:36;17.10;88.20
63802;DHT22;49949;43.060;25.624;2023-04-03T12:01:43;17.00;86.80
63802;DHT22;49949;43.060;25.624;2023-04-03T12:04:10;16.90;88.10
63802;DHT22;49949;43.060;25.624;2023-04-03T12:06:43;16.80;87.90
63802;DHT22;49949;43.060;25.624;2023-04-03T12:11:51;16.70;86.70
63802;DHT22;49949;43.060;25.624;2023-04-03T12:14:16;16.50;85.70
63802;DHT22;49949;43.060;25.624;2023-04-03T12:16:44;16.50;85.80
63802;DHT22;49949;43.060;25.624;2023-04-03T12:29:17;16.60;87.40
63802;DHT22;49949;43.060;25.624;2023-04-03T12:31:46;16.60;88.10
63802;DHT22;49949;43.060;25.624;2023-04-03T12:34:42;16.60;88.50
63802;DHT22;49949;43.060;25.624;2023-04-03T12:45:26;16.60;88.60
63802;DHT22;49949;43.060;25.624;2023-04-03T12:47:53;16.40;89.00
63802;DHT22;49949;43.060;25.624;2023-04-03T12:50:29;16.60;89.60
63802;DHT22;49949;43.060;25.624;2023-04-03T12:53:00;16.70;88.60
63802;DHT22;49949;43.060;25.624;2023-04-03T12:55:26;16.60;88.50
63802;DHT22;49949;43.060;25.624;2023-04-03T12:57:52;16.70;87.90
63802;DHT22;49949;43.060;25.624;2023-04-03T13:00:19;16.70;87.60
63802;DHT22;49949;43.060;25.624;2023-04-03T13:02:53;16.70;87.40
63802;DHT22;49949;43.060;25.624;2023-04-03T13:05:19;16.60;89.80
63802;DHT22;49949;43.060;25.624;2023-04-03T13:07:49;16.40;87.80
63802;DHT22;49949;43.060;25.624;2023-04-03T13:10:18;16.30;86.90
63802;DHT22;49949;43.060;25.624;2023-04-03T13:12:51;16.30;87.10
63802;DHT22;49949;43.060;25.624;2023-04-03T13:17:43;16.20;88.80
63802;DHT22;49949;43.060;25.624;2023-04-03T13:20:14;16.20;89.70
63802;DHT22;49949;43.060;25.624;2023-04-03T13:23:05;16.10;90.90
63802;DHT22;49949;43.060;25.624;2023-04-03T13:25:41;16.00;93.00
63802;DHT22;49949;43.060;25.624;2023-04-03T13:28:15;15.90;94.70
63802;DHT22;49949;43.060;25.624;2023-04-03T13:30:53;15.90;97.40
63802;DHT22;49949;43.060;25.624;2023-04-03T13:33:30;15.80;96.80
63802;DHT22;49949;43.060;25.624;2023-04-03T13:36:02;15.70;98.60
63802;DHT22;49949;43.060;25.624;2023-04-03T13:38:28;15.50;99.70
63802;DHT22;49949;43.060;25.624;2023-04-03T13:41:31;15.30;99.90
63802;DHT22;49949;43.060;25.624;2023-04-03T13:46:49;14.90;99.90
63802;DHT22;49949;43.060;25.624;2023-04-03T13:49:39;14.90;99.90
63802;DHT22;49949;43.060;25.624;2023-04-03T13:52:21;14.70;99.90
63802;DHT22;49949;43.060;25.624;2023-04-03T13:55:00;14.70;99.90
63802;DHT22;49949;43.060;25.624;2023-04-03T13:57:26;14.60;99.90
63802;DHT22;49949;43.060;25.624;2023-04-03T13:59:57;14.60;99.90
63802;DHT22;49949;43.060;25.624;2023-04-03T14:02:32;14.60;99.90
63802;DHT22;49949;43.060;25.624;2023-04-03T14:05:08;14.60;99.90
63802;DHT22;49949;43.060;25.624;2023-04-03T14:07:34;14.70;99.90
63802;DHT22;49949;43.060;25.624;2023-04-03T14:09:59;14.60;99.90
63802;DHT22;49949;43.060;25.624;2023-04-03T14:12:43;14.60;99.90
63802;DHT22;49949;43.060;25.624;2023-04-03T14:15:20;14.50;99.90
63802;DHT22;49949;43.060;25.624;2023-04-03T14:17:49;14.50;99.90
63802;DHT22;49949;43.060;25.624;2023-04-03T14:20:18;14.50;99.90
63802;DHT22;49949;43.060;25.624;2023-04-03T14:22:51;14.40;99.90
63802;DHT22;49949;43.060;25.624;2023-04-03T14:28:46;14.20;99.90
63802;DHT22;49949;43.060;25.624;2023-04-03T14:31:12;14.10;99.90
63802;DHT22;49949;43.060;25.624;2023-04-03T14:33:37;14.10;99.90
63802;DHT22;49949;43.060;25.624;2023-04-03T14:39:02;13.90;99.90
63802;DHT22;49949;43.060;25.624;2023-04-03T14:41:29;13.80;99.90
63802;DHT22;49949;43.060;25.624;2023-04-03T14:43:55;13.80;99.90
63802;DHT22;49949;43.060;25.624;2023-04-03T14:46:34;13.60;99.90
63802;DHT22;49949;43.060;25.624;2023-04-03T14:49:03;13.60;99.90
63802;DHT22;49949;43.060;25.624;2023-04-03T14:51:34;13.40;99.90
63802;DHT22;49949;43.060;25.624;2023-04-03T14:54:02;13.30;99.90
63802;DHT22;49949;43.060;25.624;2023-04-03T14:56:28;13.20;99.90
63802;DHT22;49949;43.060;25.624;2023-04-03T14:58:58;13.10;99.90
63802;DHT22;49949;43.060;25.624;2023-04-03T15:01:25;13.00;99.90
63802;DHT22;49949;43.060;25.624;2023-04-03T15:03:51;12.90;99.90
63802;DHT22;49949;43.060;25.624;2023-04-03T15:06:17;12.90;99.90
63802;DHT22;49949;43.060;25.624;2023-04-03T15:08:43;12.90;99.90
63802;DHT22;49949;43.060;25.624;2023-04-03T15:11:13;12.80;99.90
63802;DHT22;49949;43.060;25.624;2023-04-03T15:13:39;12.70;99.90
63802;DHT22;49949;43.060;25.624;2023-04-03T15:16:15;12.70;99.90
63802;DHT22;49949;43.060;25.624;2023-04-03T15:18:41;12.60;99.90
63802;DHT22;49949;43.060;25.624;2023-04-03T15:21:18;12.60;99.90
63802;DHT22;49949;43.060;25.624;2023-04-03T15:23:47;12.50;99.90
63802;DHT22;49949;43.060;25.624;2023-04-03T15:26:13;12.50;99.90
63802;DHT22;49949;43.060;25.624;2023-04-03T15:28:39;12.50;99.90
63802;DHT22;49949;43.060;25.624;2023-04-03T15:31:06;12.40;99.90
63802;DHT22;49949;43.060;25.624;2023-04-03T15:33:32;12.40;99.90
63802;DHT22;49949;43.060;25.624;2023-04-03T15:35:58;12.30;99.90
63802;DHT22;49949;43.060;25.624;2023-04-03T15:38:24;12.30;99.90
63802;DHT22;49949;43.060;25.624;2023-04-03T15:40:50;12.30;99.90
63802;DHT22;49949;43.060;25.624;2023-04-03T15:43:16;12.20;99.90
63802;DHT22;49949;43.060;25.624;2023-04-03T15:45:42;12.10;99.90
63802;DHT22;49949;43.060;25.624;2023-04-03T15:48:18;12.10;99.90
63802;DHT22;49949;43.060;25.624;2023-04-03T15:51:22;12.10;99.90
63802;DHT22;49949;43.060;25.624;2023-04-03T15:53:48;12.10;99.90
63802;DHT22;49949;43.060;25.624;2023-04-03T15:56:13;12.10;99.90
63802;DHT22;49949;43.060;25.624;2023-04-03T15:58:40;12.00;99.90
63802;DHT22;49949;43.060;25.624;2023-04-03T16:01:05;12.00;99.90
63802;DHT22;49949;43.060;25.624;2023-04-03T16:03:36;12.00;99.90
63802;DHT22;49949;43.060;25.624;2023-04-03T16:06:09;12.00;99.90
63802;DHT22;49949;43.060;25.624;2023-04-03T16:08:35;12.00;99.90
63802;DHT22;49949;43.060;25.624;2023-04-03T16:11:10;11.90;99.90
63802;DHT22;49949;43.060;25.624;2023-04-03T16:13:36;11.90;99.90
63802;DHT22;49949;43.060;25.624;2023-04-03T16:16:03;11.90;99.90
63802;DHT22;49949;43.060;25.624;2023-04-03T16:19:14;11.90;99.90
63802;DHT22;49949;43.060;25.624;2023-04-03T16:27:12;11.80;99.90
63802;DHT22;49949;43.060;25.624;2023-04-03T16:29:41;11.80;99.90
63802;DHT22;49949;43.060;25.624;2023-04-03T16:35:12;11.70;99.90
63802;DHT22;49949;43.060;25.624;2023-04-03T16:37:38;11.70;99.90
63802;DHT22;49949;43.060;25.624;2023-04-03T16:40:13;11.50;99.90
63802;DHT22;49949;43.060;25.624;2023-04-03T16:43:17;11.50;99.90
63802;DHT22;49949;43.060;25.624;2023-04-03T16:45:43;11.50;99.90
63802;DHT22;49949;43.060;25.624;2023-04-03T16:48:20;11.40;99.90
63802;DHT22;49949;43.060;25.624;2023-04-03T16:51:12;11.30;99.90
63802;DHT22;49949;43.060;25.624;2023-04-03T16:53:38;11.30;99.90
63802;DHT22;49949;43.060;25.624;2023-04-03T16:56:11;11.30;99.90
63802;DHT22;49949;43.060;25.624;2023-04-03T16:58:42;11.30;99.90
63802;DHT22;49949;43.060;25.624;2023-04-03T17:01:12;11.30;99.90
63802;DHT22;49949;43.060;25.624;2023-04-03T17:03:39;11.30;99.90
63802;DHT22;49949;43.060;25.624;2023-04-03T17:06:05;11.30;99.90
63802;DHT22;49949;43.060;25.624;2023-04-03T17:08:38;11.30;99.90
63802;DHT22;49949;43.060;25.624;2023-04-03T17:11:04;11.30;99.90
63802;DHT22;49949;43.060;25.624;2023-04-03T17:13:30;11.20;99.90
63802;DHT22;49949;43.060;25.624;2023-04-03T17:15:57;11.20;99.90
63802;DHT22;49949;43.060;25.624;2023-04-03T17:18:24;11.20;99.90
63802;DHT22;49949;43.060;25.624;2023-04-03T17:20:50;11.20;99.90
63802;DHT22;49949;43.060;25.624;2023-04-03T17:23:16;11.20;99.90
63802;DHT22;49949;43.060;25.624;2023-04-03T17:25:46;11.20;99.90
63802;DHT22;49949;43.060;25.624;2023-04-03T17:28:12;11.20;99.90
63802;DHT22;49949;43.060;25.624;2023-04-03T17:30:38;11.20;99.90
63802;DHT22;49949;43.060;25.624;2023-04-03T17:33:03;11.10;99.90
63802;DHT22;49949;43.060;25.624;2023-04-03T17:35:29;11.20;99.90
63802;DHT22;49949;43.060;25.624;2023-04-03T17:37:55;11.20;99.90
63802;DHT22;49949;43.060;25.624;2023-04-03T17:40:21;11.20;99.90